Airfield :
LOGIN :

Register | Disclaimer

   EN    FR    IT 

 










Legend :    VFR   Marginal VFR   IFR   Intensive IFR   Very Intensive IFR
Visi :
Ceiling :
>= 8 km
>= 3000ft
5 to 8 km
1000 to 3000 ft
1500m to 5 km
500 to 1000 ft
800 to 1500m
200 to 500 ft
< 800m
< 200 ft
Symbols :   Thunderstorms  Fog  Heavy snow  Heavy precipitations  Wind > 20 kt
SIGMETs :     Misc.  Thunderstorms  Icing  Turbulence  Mountain Waves  Volcanic Ashes







- Airport Elevation : 1367 ft
- IATA code : FDH


EDNY - Friedrichshafen

CURRENT METAR :
  • 200920Z 22004KT 9999 FEW019 BKN030 15/11 Q1019

EXPIRED METARs :
  • 200850Z 02005KT 9999 FEW016 OVC027 15/11 Q1019
  • 200820Z 01005KT 9999 FEW015 OVC027 14/11 Q1019
  • 200750Z 36006KT 9999 FEW013 BKN015 OVC029 14/11 Q1019
  • 200720Z 36005KT 9999 FEW013 BKN015 14/11 Q1019
  • 200650Z 03005KT 330V050 9999 SCT012 SCT025 14/11 Q1019

TAF TAF EDNY
Valid from the 20 at 06:00 until the 21 at 06:00 UTC


200500Z 2006/2106 03006KT 9999 BKN025
PROB40
TEMPO 2011/2020 10015G25KT TSRA BKN020CB
BECMG 2022/2024 VRB02KT
No reported NOTAMs for that airfield.



MET'MAP, your aeronautical weather chart ! - Copyright ORBIFLY December 2007 - Disclaimer

ORBIFLY MET'MAP TEAM :

Programming & Development : Alexandra Zaïnal
Concept & Development : Baudouin d'Aumeries
Co-Development & Prog : Marc-Olivier Méhu
Technical & hardware support : Manuel Goepfert

Contact : metmap@orbifly.com




SOURCES & CREDITS :

   NOAA